Time;durP1;ratioP1;P1;durP2;ratioP2;P2;SDS_P1;SDS_P2;PMS_P1;PMS_P2;Temp;Humidity;BMP_temperature;BMP_pressure;BME280_temperature;BME280_humidity;BME280_pressure;Samples;Min_cycle;Max_cycle;Signal;HPM_P1;HPM_P2
2024/01/23 00:02:06;;;;;;;;;;;6.20;99.90;;;;;;5097254;28;20446;-79
2024/01/23 00:04:32;;;;;;;;;;;6.30;99.90;;;;;;5097844;28;20058;-79
2024/01/23 00:06:58;;;;;;;;;;;6.20;99.90;;;;;;5097658;28;19974;-79
2024/01/23 00:09:23;;;;;;;;;;;6.90;99.90;;;;;;5097293;28;19924;-79
2024/01/23 00:11:48;;;;;;;;;;;6.70;99.90;;;;;;5097808;28;19931;-80
2024/01/23 00:14:14;;;;;;;;;;;6.30;99.90;;;;;;5096679;28;19924;-80
2024/01/23 00:16:39;;;;;;;;;;;6.30;99.90;;;;;;5095585;28;19985;-80
2024/01/23 00:19:05;;;;;;;;;;;6.30;99.90;;;;;;5097723;28;20329;-80
2024/01/23 00:21:31;;;;;;;;;;;6.30;99.90;;;;;;5096818;28;20564;-80
2024/01/23 00:23:57;;;;;;;;;;;6.50;99.90;;;;;;5097710;28;19923;-79
2024/01/23 00:26:22;;;;;;;;;;;6.30;99.90;;;;;;5114916;28;19973;-79
2024/01/23 00:28:48;;;;;;;;;;;6.40;99.90;;;;;;5097013;28;20363;-80
2024/01/23 00:31:13;;;;;;;;;;;6.40;99.90;;;;;;5096855;28;19923;-80
2024/01/23 00:33:39;;;;;;;;;;;7.00;99.90;;;;;;5097726;28;19927;-79
2024/01/23 00:36:05;;;;;;;;;;;6.30;99.90;;;;;;5094846;28;19928;-80
2024/01/23 00:38:30;;;;;;;;;;;6.30;99.90;;;;;;5097522;28;20424;-79
2024/01/23 00:40:56;;;;;;;;;;;6.30;99.90;;;;;;5102061;28;19924;-79
2024/01/23 00:43:21;;;;;;;;;;;6.20;99.90;;;;;;5076512;28;19932;-79
2024/01/23 00:45:47;;;;;;;;;;;6.30;99.90;;;;;;5076972;28;19924;-79
2024/01/23 00:48:12;;;;;;;;;;;6.20;99.90;;;;;;5076611;28;20046;-79
2024/01/23 00:50:38;;;;;;;;;;;6.60;99.90;;;;;;5076386;28;20011;-80
2024/01/23 00:53:03;;;;;;;;;;;6.00;99.90;;;;;;5076951;28;19928;-79
2024/01/23 00:55:29;;;;;;;;;;;6.00;99.90;;;;;;5076934;28;20375;-80
2024/01/23 00:57:54;;;;;;;;;;;6.00;99.90;;;;;;5076415;28;19924;-79
2024/01/23 01:00:20;;;;;;;;;;;6.90;99.90;;;;;;5076528;28;19931;-79
2024/01/23 01:02:45;;;;;;;;;;;6.00;99.90;;;;;;5077089;28;19924;-79
2024/01/23 01:05:11;;;;;;;;;;;5.90;99.90;;;;;;5083369;28;20011;-80
2024/01/23 01:07:36;;;;;;;;;;;5.90;99.90;;;;;;5107824;28;19924;-80
2024/01/23 01:10:04;;;;;;;;;;;5.90;99.90;;;;;;5094204;28;20303;-80
2024/01/23 01:12:30;;;;;;;;;;;5.90;99.90;;;;;;5075775;28;20435;-80
2024/01/23 01:14:55;;;;;;;;;;;5.90;99.90;;;;;;5076290;28;20019;-80
2024/01/23 01:17:21;;;;;;;;;;;5.90;99.90;;;;;;5075290;28;19969;-80
2024/01/23 01:19:47;;;;;;;;;;;5.90;99.90;;;;;;5076206;28;19963;-80
2024/01/23 01:22:13;;;;;;;;;;;6.40;99.90;;;;;;5076197;28;19994;-80
2024/01/23 01:24:38;;;;;;;;;;;6.40;99.90;;;;;;5079594;28;20399;-80
2024/01/23 01:27:04;;;;;;;;;;;5.90;99.90;;;;;;5096230;28;20011;-81
2024/01/23 01:29:30;;;;;;;;;;;5.90;99.90;;;;;;5096208;28;19974;-81
2024/01/23 01:31:55;;;;;;;;;;;5.90;99.90;;;;;;5095257;28;19924;-80
2024/01/23 01:34:21;;;;;;;;;;;5.90;99.90;;;;;;5098334;28;19924;-81
2024/01/23 01:36:46;;;;;;;;;;;5.90;99.90;;;;;;5094169;28;19959;-80
2024/01/23 01:39:12;;;;;;;;;;;6.60;99.90;;;;;;5092876;28;19935;-80
2024/01/23 01:41:37;;;;;;;;;;;6.70;99.90;;;;;;5082964;28;20298;-80
2024/01/23 01:44:03;;;;;;;;;;;5.90;99.90;;;;;;5095509;28;19924;-80
2024/01/23 01:46:28;;;;;;;;;;;5.90;99.90;;;;;;5095729;28;20376;-80
2024/01/23 01:48:54;;;;;;;;;;;5.90;99.90;;;;;;5096246;28;19932;-80
2024/01/23 01:51:20;;;;;;;;;;;5.90;99.90;;;;;;5095907;28;19927;-79
2024/01/23 01:53:46;;;;;;;;;;;5.90;99.90;;;;;;5095230;28;19924;-80
2024/01/23 01:56:12;;;;;;;;;;;5.90;99.90;;;;;;5094063;28;20313;-80
2024/01/23 01:58:39;;;;;;;;;;;5.90;99.90;;;;;;5075654;28;19924;-80
2024/01/23 02:01:04;;;;;;;;;;;6.30;99.90;;;;;;5074100;28;19924;-80
2024/01/23 02:03:30;;;;;;;;;;;6.60;99.90;;;;;;5075824;28;20336;-80
2024/01/23 02:05:56;;;;;;;;;;;6.40;99.90;;;;;;5075788;28;19969;-80
2024/01/23 02:08:22;;;;;;;;;;;6.00;99.90;;;;;;5074602;28;19932;-80
2024/01/23 02:10:48;;;;;;;;;;;5.90;99.90;;;;;;5075162;28;19971;-80
2024/01/23 02:13:13;;;;;;;;;;;5.90;99.90;;;;;;5075486;28;19923;-80
2024/01/23 02:15:39;;;;;;;;;;;5.90;99.90;;;;;;5074406;28;20383;-80
2024/01/23 02:18:04;;;;;;;;;;;6.50;99.90;;;;;;5075273;28;19928;-80
2024/01/23 02:20:30;;;;;;;;;;;5.90;99.90;;;;;;5098492;28;19969;-79
2024/01/23 02:22:55;;;;;;;;;;;5.90;99.90;;;;;;5085017;28;19924;-80
2024/01/23 02:25:21;;;;;;;;;;;6.10;99.90;;;;;;5075130;28;19924;-80
2024/01/23 02:27:46;;;;;;;;;;;6.20;99.90;;;;;;5074490;28;19931;-80
2024/01/23 02:30:12;;;;;;;;;;;6.00;99.90;;;;;;5074780;28;19927;-79
2024/01/23 02:32:42;;;;;;;;;;;6.00;99.90;;;;;;5075141;28;20295;-80
2024/01/23 02:35:07;;;;;;;;;;;6.70;99.90;;;;;;5074259;28;19931;-80
2024/01/23 02:37:33;;;;;;;;;;;6.00;99.90;;;;;;5075154;28;19924;-80
2024/01/23 02:39:58;;;;;;;;;;;6.00;99.90;;;;;;5074964;28;19931;-80
2024/01/23 02:42:24;;;;;;;;;;;6.10;99.90;;;;;;5092051;28;19955;-80
2024/01/23 02:44:49;;;;;;;;;;;6.90;99.90;;;;;;5095145;28;19967;-80
2024/01/23 02:47:15;;;;;;;;;;;6.10;99.90;;;;;;5094869;28;19965;-80
2024/01/23 02:49:41;;;;;;;;;;;6.10;99.90;;;;;;5094311;28;19924;-80
2024/01/23 02:52:07;;;;;;;;;;;6.60;99.90;;;;;;5080105;28;20006;-80
2024/01/23 02:54:33;;;;;;;;;;;6.90;99.90;;;;;;5074837;28;20451;-80
2024/01/23 02:56:58;;;;;;;;;;;6.30;99.90;;;;;;5073864;28;19920;-80
2024/01/23 02:59:24;;;;;;;;;;;6.30;99.90;;;;;;5075090;28;19924;-80
2024/01/23 03:01:49;;;;;;;;;;;6.40;99.90;;;;;;5074396;28;19924;-80
2024/01/23 03:04:15;;;;;;;;;;;6.40;99.90;;;;;;5073724;28;19966;-81
2024/01/23 03:06:40;;;;;;;;;;;6.40;99.90;;;;;;5074280;28;19924;-81
2024/01/23 03:09:06;;;;;;;;;;;6.50;99.90;;;;;;5074391;28;19947;-80
2024/01/23 03:11:32;;;;;;;;;;;7.30;99.90;;;;;;5073589;28;19975;-81
2024/01/23 03:13:57;;;;;;;;;;;6.50;99.90;;;;;;5074964;28;19924;-81
2024/01/23 03:16:23;;;;;;;;;;;6.50;99.90;;;;;;5074162;28;20676;-80
2024/01/23 03:18:48;;;;;;;;;;;6.60;99.90;;;;;;5074243;28;19931;-80
2024/01/23 03:21:14;;;;;;;;;;;7.50;99.90;;;;;;5074251;28;19920;-81
2024/01/23 03:23:40;;;;;;;;;;;6.50;99.90;;;;;;5092727;28;20398;-81
2024/01/23 03:26:05;;;;;;;;;;;6.50;99.90;;;;;;5073789;28;19928;-81
2024/01/23 03:28:31;;;;;;;;;;;6.70;99.90;;;;;;5074522;28;19972;-81
2024/01/23 03:30:56;;;;;;;;;;;6.50;99.90;;;;;;5073555;28;19931;-81
2024/01/23 03:33:22;;;;;;;;;;;6.50;99.90;;;;;;5083758;28;19934;-81
2024/01/23 03:35:49;;;;;;;;;;;6.50;99.90;;;;;;5098838;28;19919;-81
2024/01/23 03:38:14;;;;;;;;;;;7.00;99.90;;;;;;5097126;28;20022;-81
2024/01/23 03:40:43;;;;;;;;;;;6.90;99.90;;;;;;5098414;28;19959;-81
2024/01/23 03:43:08;;;;;;;;;;;6.60;99.90;;;;;;5098116;28;19924;-81
2024/01/23 03:45:34;;;;;;;;;;;6.60;99.90;;;;;;5097679;28;19942;-80
2024/01/23 03:48:02;;;;;;;;;;;6.90;99.90;;;;;;5098171;28;19927;-81
2024/01/23 03:50:27;;;;;;;;;;;6.50;99.90;;;;;;5097995;28;19938;-81
2024/01/23 03:52:53;;;;;;;;;;;6.60;99.90;;;;;;5097030;28;19924;-81
2024/01/23 03:55:18;;;;;;;;;;;6.80;99.90;;;;;;5097839;28;20411;-80
2024/01/23 03:57:44;;;;;;;;;;;6.60;99.90;;;;;;5098324;28;19919;-80
2024/01/23 04:00:10;;;;;;;;;;;7.40;99.90;;;;;;5115649;28;19934;-80
2024/01/23 04:02:37;;;;;;;;;;;6.60;99.90;;;;;;5098034;28;19974;-80
2024/01/23 04:05:03;;;;;;;;;;;6.70;99.90;;;;;;5098020;28;20385;-80
2024/01/23 04:07:29;;;;;;;;;;;6.70;99.90;;;;;;5096576;28;19920;-81
2024/01/23 04:09:54;;;;;;;;;;;6.70;99.90;;;;;;5097570;28;20008;-81
2024/01/23 04:12:20;;;;;;;;;;;6.70;99.90;;;;;;5097719;28;20391;-80
2024/01/23 04:14:45;;;;;;;;;;;6.60;99.90;;;;;;5097048;28;19931;-81
2024/01/23 04:17:11;;;;;;;;;;;6.60;99.90;;;;;;5097516;28;19924;-81
2024/01/23 04:19:37;;;;;;;;;;;6.60;99.90;;;;;;5116062;28;19924;-81
2024/01/23 04:22:03;;;;;;;;;;;6.60;99.90;;;;;;5096324;28;19923;-80
2024/01/23 04:24:28;;;;;;;;;;;6.60;99.90;;;;;;5093463;28;19935;-82
2024/01/23 04:26:54;;;;;;;;;;;7.30;99.90;;;;;;5112515;27;19924;-81
2024/01/23 04:29:19;;;;;;;;;;;6.60;99.90;;;;;;5083797;28;20295;-81
2024/01/23 04:31:45;;;;;;;;;;;6.60;99.90;;;;;;5084682;28;19931;-81
2024/01/23 04:34:10;;;;;;;;;;;6.80;99.90;;;;;;5088249;28;20011;-81
2024/01/23 04:36:36;;;;;;;;;;;6.60;99.90;;;;;;5094074;28;19972;-81
2024/01/23 04:39:01;;;;;;;;;;;6.90;99.90;;;;;;5096953;28;19962;-81
2024/01/23 04:41:27;;;;;;;;;;;7.20;99.90;;;;;;5076996;28;19935;-81
2024/01/23 04:43:53;;;;;;;;;;;6.30;99.90;;;;;;5088424;28;19924;-81
2024/01/23 04:46:18;;;;;;;;;;;6.20;99.90;;;;;;5092741;28;20287;-81
2024/01/23 04:48:46;;;;;;;;;;;6.20;99.90;;;;;;5093335;28;20027;-80
2024/01/23 04:51:12;;;;;;;;;;;6.10;99.90;;;;;;5095262;28;20404;-80
2024/01/23 04:53:38;;;;;;;;;;;6.10;99.90;;;;;;5097494;28;19967;-80
2024/01/23 04:56:03;;;;;;;;;;;6.00;99.90;;;;;;5076360;28;19920;-80
2024/01/23 04:58:29;;;;;;;;;;;6.00;99.90;;;;;;5076779;28;19932;-81
2024/01/23 05:00:55;;;;;;;;;;;6.00;99.90;;;;;;5091559;28;19977;-81
2024/01/23 05:03:20;;;;;;;;;;;5.90;99.90;;;;;;5094259;28;19924;-80
2024/01/23 05:05:46;;;;;;;;;;;5.90;99.90;;;;;;5097097;28;19919;-80
2024/01/23 05:08:11;;;;;;;;;;;6.80;99.90;;;;;;5114564;28;20026;-84
2024/01/23 05:10:38;;;;;;;;;;;5.80;99.90;;;;;;5092076;28;19971;-83
2024/01/23 05:13:03;;;;;;;;;;;5.80;99.90;;;;;;5093330;28;20015;-80
2024/01/23 05:15:29;;;;;;;;;;;6.90;99.90;;;;;;5096291;28;20451;-77
2024/01/23 05:17:54;;;;;;;;;;;5.70;99.90;;;;;;5089795;28;20017;-82
2024/01/23 05:20:20;;;;;;;;;;;5.70;99.90;;;;;;5089563;28;19924;-81
2024/01/23 05:22:45;;;;;;;;;;;6.00;99.90;;;;;;5093131;28;19939;-81
2024/01/23 05:25:11;;;;;;;;;;;5.70;99.90;;;;;;5092257;28;20440;-82
2024/01/23 05:27:37;;;;;;;;;;;5.70;99.90;;;;;;5092711;28;19924;-82
2024/01/23 05:30:06;;;;;;;;;;;5.70;99.90;;;;;;5088654;28;19928;-81
2024/01/23 05:32:32;;;;;;;;;;;5.70;99.90;;;;;;5074828;28;19928;-81
2024/01/23 05:34:58;;;;;;;;;;;6.70;99.90;;;;;;5076686;28;19947;-80
2024/01/23 05:37:25;;;;;;;;;;;6.80;99.90;;;;;;5075388;28;19920;-80
2024/01/23 05:39:50;;;;;;;;;;;5.80;99.90;;;;;;5118509;27;19923;-79
2024/01/23 05:42:16;;;;;;;;;;;5.70;99.90;;;;;;5092026;28;19934;-79
2024/01/23 05:44:41;;;;;;;;;;;5.70;99.90;;;;;;5095556;28;19928;-81
2024/01/23 05:47:07;;;;;;;;;;;5.70;99.90;;;;;;5095967;28;19931;-87
2024/01/23 05:49:32;;;;;;;;;;;5.70;99.90;;;;;;5088363;28;20314;-78
2024/01/23 05:51:58;;;;;;;;;;;5.60;99.90;;;;;;5085590;28;19930;-83
2024/01/23 05:54:25;;;;;;;;;;;4.70;99.90;;;;;;5096155;28;20390;-83
2024/01/23 05:56:51;;;;;;;;;;;5.70;99.90;;;;;;5113499;28;20016;-86
2024/01/23 05:59:16;;;;;;;;;;;5.80;99.90;;;;;;5081870;28;19924;-86
2024/01/23 06:01:42;;;;;;;;;;;5.60;99.90;;;;;;5075716;28;20299;-86
2024/01/23 06:04:08;;;;;;;;;;;5.60;99.90;;;;;;5075695;28;20028;-83
2024/01/23 06:06:38;;;;;;;;;;;5.60;99.90;;;;;;5074691;28;19960;-84
2024/01/23 06:09:03;;;;;;;;;;;5.80;99.90;;;;;;5076564;28;19932;-75
2024/01/23 06:11:29;;;;;;;;;;;5.60;99.90;;;;;;5075398;28;20027;-73
2024/01/23 06:13:54;;;;;;;;;;;5.60;99.90;;;;;;5074582;28;19931;-74
2024/01/23 06:16:20;;;;;;;;;;;5.60;99.90;;;;;;5075397;28;20022;-71
2024/01/23 06:18:45;;;;;;;;;;;5.60;99.90;;;;;;5075162;28;19978;-75
2024/01/23 06:21:11;;;;;;;;;;;5.60;99.90;;;;;;5071954;28;19924;-74
2024/01/23 06:23:36;;;;;;;;;;;6.00;99.90;;;;;;5092563;28;19977;-74
2024/01/23 06:26:02;;;;;;;;;;;5.60;99.90;;;;;;5110390;28;20256;-74
2024/01/23 06:28:27;;;;;;;;;;;5.60;99.90;;;;;;5093200;28;19969;-74
2024/01/23 06:30:53;;;;;;;;;;;5.50;99.90;;;;;;5094697;28;20761;-74
2024/01/23 06:33:19;;;;;;;;;;;5.60;99.90;;;;;;5095351;28;19928;-74
2024/01/23 06:35:44;;;;;;;;;;;6.10;99.90;;;;;;5094106;28;19923;-74
2024/01/23 06:38:10;;;;;;;;;;;5.50;99.90;;;;;;5093129;28;19930;-74
2024/01/23 06:40:35;;;;;;;;;;;5.50;99.90;;;;;;5109503;28;19935;-74
2024/01/23 06:43:01;;;;;;;;;;;5.50;99.90;;;;;;5082104;28;19924;-74
2024/01/23 06:45:26;;;;;;;;;;;5.50;99.90;;;;;;5072747;28;20002;-74
2024/01/23 06:47:52;;;;;;;;;;;5.50;99.90;;;;;;5071682;28;19934;-74
2024/01/23 06:50:17;;;;;;;;;;;6.30;99.90;;;;;;5085090;28;19924;-72
2024/01/23 06:52:43;;;;;;;;;;;5.50;99.90;;;;;;5094915;28;19924;-73
2024/01/23 06:55:09;;;;;;;;;;;5.50;99.90;;;;;;5093764;28;20022;-74
2024/01/23 06:57:34;;;;;;;;;;;5.40;99.90;;;;;;5095135;28;20014;-73
2024/01/23 07:00:00;;;;;;;;;;;5.40;99.90;;;;;;5111080;28;19928;-72
2024/01/23 07:02:25;;;;;;;;;;;5.80;99.90;;;;;;5094469;28;19937;-73
2024/01/23 07:04:50;;;;;;;;;;;5.40;99.90;;;;;;5095068;28;19919;-74
2024/01/23 07:07:18;;;;;;;;;;;5.30;99.90;;;;;;5096097;28;19924;-75
2024/01/23 07:09:43;;;;;;;;;;;6.20;99.90;;;;;;5116316;28;19955;-74
2024/01/23 07:12:09;;;;;;;;;;;5.30;99.90;;;;;;5116946;28;20370;-75
2024/01/23 07:14:34;;;;;;;;;;;5.40;99.90;;;;;;5117545;28;19924;-76
2024/01/23 07:17:00;;;;;;;;;;;5.60;99.90;;;;;;5116540;28;20397;-74
2024/01/23 07:19:25;;;;;;;;;;;5.40;99.90;;;;;;5097353;28;20276;-74
2024/01/23 07:21:51;;;;;;;;;;;5.70;99.90;;;;;;5078668;28;19931;-74
2024/01/23 07:24:17;;;;;;;;;;;5.90;99.90;;;;;;5077547;28;19994;-74
2024/01/23 07:26:42;;;;;;;;;;;5.40;99.90;;;;;;5078425;28;19928;-73
2024/01/23 07:29:08;;;;;;;;;;;5.30;99.90;;;;;;5078150;28;19924;-73
2024/01/23 07:31:33;;;;;;;;;;;5.30;99.90;;;;;;5077650;28;19924;-73
2024/01/23 07:33:59;;;;;;;;;;;5.70;99.90;;;;;;5083783;28;19920;-73
2024/01/23 07:36:26;;;;;;;;;;;5.30;99.90;;;;;;5099142;28;19985;-73
2024/01/23 07:38:51;;;;;;;;;;;5.30;99.90;;;;;;5097759;28;19931;-74
2024/01/23 07:41:17;;;;;;;;;;;5.30;99.90;;;;;;5098133;28;19924;-72
2024/01/23 07:43:42;;;;;;;;;;;6.20;99.90;;;;;;5098572;28;20018;-73
2024/01/23 07:46:08;;;;;;;;;;;5.30;99.90;;;;;;5097577;28;20370;-73
2024/01/23 07:48:34;;;;;;;;;;;5.30;99.90;;;;;;5114211;28;20026;-74
2024/01/23 07:51:00;;;;;;;;;;;5.20;99.90;;;;;;5101838;28;20656;-74
2024/01/23 07:53:26;;;;;;;;;;;5.30;99.90;;;;;;5090100;28;19935;-75
2024/01/23 07:55:52;;;;;;;;;;;5.70;99.90;;;;;;5077186;28;19928;-74
2024/01/23 07:58:17;;;;;;;;;;;5.80;99.90;;;;;;5080790;28;19931;-75
2024/01/23 08:00:43;;;;;;;;;;;5.30;99.90;;;;;;5079238;28;19932;-75
2024/01/23 08:03:09;;;;;;;;;;;5.30;99.90;;;;;;5076609;28;19963;-75
2024/01/23 08:05:35;;;;;;;;;;;5.30;99.90;;;;;;5076212;28;19924;-75
2024/01/23 08:08:00;;;;;;;;;;;5.30;99.90;;;;;;5094064;28;19950;-75
2024/01/23 08:10:26;;;;;;;;;;;5.30;99.90;;;;;;5076814;28;19924;-75
2024/01/23 08:12:51;;;;;;;;;;;6.00;99.90;;;;;;5076475;28;19928;-75
2024/01/23 08:15:20;;;;;;;;;;;5.30;99.90;;;;;;5077483;28;19924;-74
2024/01/23 08:17:48;;;;;;;;;;;6.20;99.90;;;;;;5077634;28;19932;-75
2024/01/23 08:20:13;;;;;;;;;;;5.50;99.90;;;;;;5076621;28;20402;-75
2024/01/23 08:22:39;;;;;;;;;;;5.60;99.90;;;;;;5115516;28;19928;-76
2024/01/23 08:25:05;;;;;;;;;;;5.60;99.90;;;;;;5078716;28;20409;-76
2024/01/23 08:27:31;;;;;;;;;;;5.70;99.90;;;;;;5071947;28;19931;-75
2024/01/23 08:29:56;;;;;;;;;;;5.80;99.90;;;;;;5076296;28;19930;-75
2024/01/23 08:32:22;;;;;;;;;;;5.80;99.90;;;;;;5094755;28;19950;-80
2024/01/23 08:34:48;;;;;;;;;;;5.90;99.90;;;;;;5076480;28;19931;-78
2024/01/23 08:37:14;;;;;;;;;;;6.30;99.90;;;;;;5095190;28;19919;-78
2024/01/23 08:39:40;;;;;;;;;;;6.40;99.90;;;;;;5076750;28;19924;-78
2024/01/23 08:42:05;;;;;;;;;;;6.10;99.90;;;;;;5093762;28;20011;-78
2024/01/23 08:44:31;;;;;;;;;;;6.30;99.90;;;;;;5076972;28;19933;-78
2024/01/23 08:46:56;;;;;;;;;;;6.60;99.90;;;;;;5084018;28;19931;-78
2024/01/23 08:49:22;;;;;;;;;;;6.90;99.90;;;;;;5090981;28;19972;-79
2024/01/23 08:51:47;;;;;;;;;;;7.10;99.90;;;;;;5086054;28;20023;-78
2024/01/23 08:54:18;;;;;;;;;;;7.20;99.90;;;;;;5077479;28;19924;-78
2024/01/23 08:56:45;;;;;;;;;;;7.50;99.90;;;;;;5077163;28;19925;-78
2024/01/23 08:59:10;;;;;;;;;;;7.30;99.90;;;;;;5076439;28;19945;-78
2024/01/23 09:01:36;;;;;;;;;;;7.40;99.90;;;;;;5084430;28;20018;-78
2024/01/23 09:04:02;;;;;;;;;;;8.50;99.90;;;;;;5096618;28;19931;-79
2024/01/23 09:06:27;;;;;;;;;;;8.10;99.90;;;;;;5097256;28;20019;-79
2024/01/23 09:08:53;;;;;;;;;;;8.90;99.90;;;;;;5096075;28;19924;-79
2024/01/23 09:11:18;;;;;;;;;;;9.50;99.90;;;;;;5093829;28;19934;-79
2024/01/23 09:13:44;;;;;;;;;;;9.90;99.90;;;;;;5097091;28;20386;-78
2024/01/23 09:16:09;;;;;;;;;;;10.30;99.90;;;;;;5095825;28;20332;-78
2024/01/23 09:18:37;;;;;;;;;;;10.80;99.90;;;;;;5096893;28;19931;-78
2024/01/23 09:21:03;;;;;;;;;;;10.80;99.90;;;;;;5079897;28;19981;-76
2024/01/23 09:23:29;;;;;;;;;;;11.20;99.90;;;;;;5075633;28;19920;-78
2024/01/23 09:25:55;;;;;;;;;;;12.00;99.90;;;;;;5076041;28;20015;-79
2024/01/23 09:28:20;;;;;;;;;;;11.80;99.90;;;;;;5076267;28;19978;-78
2024/01/23 09:30:46;;;;;;;;;;;11.30;99.90;;;;;;5093451;28;19923;-78
2024/01/23 09:33:11;;;;;;;;;;;11.10;99.90;;;;;;5075590;28;19924;-80
2024/01/23 09:35:37;;;;;;;;;;;10.10;99.90;;;;;;5109824;28;20284;-80
2024/01/23 09:38:03;;;;;;;;;;;9.60;99.90;;;;;;5074878;28;19973;-79
2024/01/23 09:40:29;;;;;;;;;;;9.20;99.90;;;;;;5093740;28;19924;-80
2024/01/23 09:42:56;;;;;;;;;;;9.80;99.90;;;;;;5093938;28;19924;-80
2024/01/23 09:45:25;;;;;;;;;;;10.90;99.90;;;;;;5092751;28;19924;-77
2024/01/23 09:47:50;;;;;;;;;;;11.70;99.90;;;;;;5094582;28;20001;-77
2024/01/23 09:50:17;;;;;;;;;;;12.60;99.90;;;;;;5075511;28;19965;-76
2024/01/23 09:52:44;;;;;;;;;;;13.20;99.90;;;;;;5075070;28;19928;-75
2024/01/23 09:55:10;;;;;;;;;;;13.50;99.90;;;;;;5075337;28;20070;-75
2024/01/23 09:57:38;;;;;;;;;;;13.60;99.90;;;;;;5108169;28;20010;-77
2024/01/23 10:00:06;;;;;;;;;;;13.70;99.90;;;;;;5093309;28;19923;-79
2024/01/23 10:02:32;;;;;;;;;;;13.70;99.90;;;;;;5109228;28;19931;-85
2024/01/23 10:04:58;;;;;;;;;;;14.10;99.90;;;;;;5054827;28;19932;-80
2024/01/23 10:07:25;;;;;;;;;;;14.20;99.90;;;;;;5055443;28;19983;-72
2024/01/23 10:09:50;;;;;;;;;;;13.90;99.90;;;;;;5073420;28;20027;-85
2024/01/23 10:12:17;;;;;;;;;;;13.30;99.90;;;;;;5054636;28;20416;-74
2024/01/23 10:14:43;;;;;;;;;;;13.10;99.90;;;;;;5079305;28;19928;-76
2024/01/23 10:17:09;;;;;;;;;;;13.00;99.90;;;;;;5093042;28;19920;-83
2024/01/23 10:19:35;;;;;;;;;;;13.50;99.90;;;;;;5109627;27;20356;-75
2024/01/23 10:22:00;;;;;;;;;;;13.00;99.90;;;;;;5093023;28;20386;-73
2024/01/23 10:24:28;;;;;;;;;;;13.10;99.90;;;;;;5093672;28;19924;-80
2024/01/23 10:26:54;;;;;;;;;;;13.70;99.90;;;;;;5074720;28;19920;-75
2024/01/23 10:29:20;;;;;;;;;;;14.60;99.90;;;;;;5074479;28;19928;-77
2024/01/23 10:31:46;;;;;;;;;;;14.70;99.90;;;;;;5075056;28;19925;-79
2024/01/23 10:34:12;;;;;;;;;;;14.10;99.90;;;;;;5074412;28;19967;-75
2024/01/23 10:36:39;;;;;;;;;;;13.10;99.90;;;;;;5074411;28;20448;-74
2024/01/23 10:39:08;;;;;;;;;;;13.20;99.90;;;;;;5108235;28;20065;-76
2024/01/23 10:41:33;;;;;;;;;;;13.70;99.90;;;;;;5074120;28;20015;-75
2024/01/23 10:44:01;;;;;;;;;;;14.00;99.90;;;;;;5108251;28;20016;-75
2024/01/23 10:46:27;;;;;;;;;;;14.40;99.90;;;;;;5075259;28;20037;-75
2024/01/23 10:48:56;;;;;;;;;;;14.30;99.90;;;;;;5090980;28;19958;-74
2024/01/23 10:51:24;;;;;;;;;;;14.80;99.90;;;;;;5094536;28;19924;-74
2024/01/23 10:53:57;;;;;;;;;;;15.20;99.90;;;;;;5111991;28;19923;-75
2024/01/23 10:56:23;;;;;;;;;;;15.90;99.90;;;;;;5070909;28;19928;-76
2024/01/23 10:58:52;;;;;;;;;;;15.70;99.90;;;;;;5074774;28;20432;-76
2024/01/23 11:01:18;;;;;;;;;;;15.60;99.90;;;;;;5091838;28;19924;-76
2024/01/23 11:03:44;;;;;;;;;;;15.20;99.90;;;;;;5075082;28;19920;-76
2024/01/23 11:06:14;;;;;;;;;;;14.90;99.90;;;;;;5074462;28;19969;-76
2024/01/23 11:08:51;;;;;;;;;;;14.70;99.90;;;;;;5074418;28;19924;-73
2024/01/23 11:11:38;;;;;;;;;;;14.60;99.90;;;;;;5092150;28;19960;-78
2024/01/23 11:14:06;;;;;;;;;;;14.20;99.90;;;;;;5108060;28;19970;-73
2024/01/23 11:16:33;;;;;;;;;;;14.10;99.90;;;;;;5092004;28;19924;-83
2024/01/23 11:18:59;;;;;;;;;;;14.00;99.90;;;;;;5074769;28;19925;-80
2024/01/23 11:21:24;;;;;;;;;;;13.70;99.90;;;;;;5074399;28;19924;-76
2024/01/23 11:23:58;;;;;;;;;;;13.00;99.90;;;;;;5078089;28;20325;-76
2024/01/23 11:26:26;;;;;;;;;;;12.00;99.90;;;;;;5094714;28;19930;-76
2024/01/23 11:28:52;;;;;;;;;;;11.50;99.90;;;;;;5080376;28;19932;-77
2024/01/23 11:31:20;;;;;;;;;;;11.50;99.90;;;;;;5091559;28;20247;-79
2024/01/23 11:33:49;;;;;;;;;;;11.60;99.90;;;;;;5092575;28;19924;-82
2024/01/23 11:36:21;;;;;;;;;;;11.40;99.90;;;;;;5073703;28;20362;-83
2024/01/23 11:38:50;;;;;;;;;;;11.30;99.90;;;;;;5074749;28;20363;-75
2024/01/23 11:41:22;;;;;;;;;;;11.30;99.90;;;;;;5074003;28;19924;-78
2024/01/23 11:43:55;;;;;;;;;;;11.40;99.90;;;;;;5073437;28;20006;-76
2024/01/23 11:46:21;;;;;;;;;;;11.00;99.90;;;;;;5074010;28;19924;-78
2024/01/23 11:48:48;;;;;;;;;;;10.80;99.90;;;;;;5092462;28;20387;-77
2024/01/23 11:51:13;;;;;;;;;;;10.90;99.90;;;;;;5073269;28;19931;-81
2024/01/23 11:53:42;;;;;;;;;;;10.80;99.90;;;;;;5074766;28;19924;-76
2024/01/23 11:56:09;;;;;;;;;;;11.30;99.90;;;;;;5111782;28;20286;-76
2024/01/23 11:58:44;;;;;;;;;;;11.60;99.90;;;;;;5077666;28;19931;-74
2024/01/23 12:01:12;;;;;;;;;;;12.40;99.90;;;;;;5077444;28;20383;-77
2024/01/23 12:03:44;;;;;;;;;;;12.30;99.90;;;;;;5111868;28;19926;-78
2024/01/23 12:06:10;;;;;;;;;;;12.20;99.90;;;;;;5094908;28;19924;-73
2024/01/23 12:08:35;;;;;;;;;;;11.80;99.90;;;;;;5077857;28;19924;-78
2024/01/23 12:11:02;;;;;;;;;;;12.20;99.90;;;;;;5093340;28;19924;-80
2024/01/23 12:13:28;;;;;;;;;;;12.40;99.90;;;;;;5120978;27;19924;-75
2024/01/23 12:15:54;;;;;;;;;;;12.90;99.90;;;;;;5086507;28;19923;-81
2024/01/23 12:18:23;;;;;;;;;;;13.00;99.90;;;;;;5083471;28;20561;-78
2024/01/23 12:20:56;;;;;;;;;;;13.20;99.90;;;;;;5096690;28;20337;-82
2024/01/23 12:23:22;;;;;;;;;;;13.60;99.90;;;;;;5096220;28;19953;-81
2024/01/23 12:25:48;;;;;;;;;;;13.80;99.90;;;;;;5083125;28;20264;-77
2024/01/23 12:28:14;;;;;;;;;;;13.40;99.90;;;;;;5076997;28;19969;-75
2024/01/23 12:30:40;;;;;;;;;;;13.10;99.90;;;;;;5081167;28;19977;-86
2024/01/23 12:33:06;;;;;;;;;;;12.90;99.90;;;;;;5088857;28;19928;-81
2024/01/23 12:35:34;;;;;;;;;;;12.30;99.90;;;;;;5079233;28;19924;-77
2024/01/23 12:38:00;;;;;;;;;;;11.80;99.90;;;;;;5082881;28;19924;-83
2024/01/23 12:40:26;;;;;;;;;;;11.00;99.90;;;;;;5094110;28;20062;-76
2024/01/23 12:42:52;;;;;;;;;;;10.60;99.90;;;;;;5113079;28;19946;-75
2024/01/23 12:45:18;;;;;;;;;;;10.40;99.90;;;;;;5114001;28;20566;-76
2024/01/23 12:47:45;;;;;;;;;;;10.00;99.90;;;;;;5087899;28;20020;-78
2024/01/23 12:50:14;;;;;;;;;;;9.80;99.90;;;;;;5073412;28;20380;-73
2024/01/23 12:52:40;;;;;;;;;;;9.60;99.90;;;;;;5094053;28;19931;-73
2024/01/23 12:55:06;;;;;;;;;;;9.40;99.90;;;;;;5079272;28;19920;-81
2024/01/23 12:57:32;;;;;;;;;;;9.20;99.90;;;;;;5093639;28;19930;-79
2024/01/23 12:59:57;;;;;;;;;;;9.90;99.90;;;;;;5094034;28;20015;-77
2024/01/23 13:02:23;;;;;;;;;;;9.70;99.90;;;;;;5074262;28;19920;-75
2024/01/23 13:04:49;;;;;;;;;;;9.80;99.90;;;;;;5093109;28;20379;-82
2024/01/23 13:07:14;;;;;;;;;;;10.10;99.90;;;;;;5075464;28;19924;-79
2024/01/23 13:09:40;;;;;;;;;;;9.50;99.90;;;;;;5074705;28;20268;-83
2024/01/23 13:12:06;;;;;;;;;;;9.30;99.90;;;;;;5112095;27;19960;-84
2024/01/23 13:14:34;;;;;;;;;;;9.10;99.90;;;;;;5109225;28;19930;-79
2024/01/23 13:17:00;;;;;;;;;;;9.00;99.90;;;;;;5075262;28;19928;-79
2024/01/23 13:19:25;;;;;;;;;;;8.90;99.90;;;;;;5109486;28;19985;-77
2024/01/23 13:21:51;;;;;;;;;;;8.90;99.90;;;;;;5069293;28;19931;-79
2024/01/23 13:24:16;;;;;;;;;;;8.50;99.90;;;;;;5108816;28;19924;-86
2024/01/23 13:26:42;;;;;;;;;;;8.50;99.90;;;;;;5075409;28;20373;-83
2024/01/23 13:29:09;;;;;;;;;;;8.90;99.90;;;;;;5073854;28;19981;-82
2024/01/23 13:31:35;;;;;;;;;;;8.90;99.90;;;;;;5073953;28;20354;-80
2024/01/23 13:34:02;;;;;;;;;;;8.70;99.90;;;;;;5081589;28;20018;-79
2024/01/23 13:36:28;;;;;;;;;;;9.10;99.90;;;;;;5071064;28;20283;-84
2024/01/23 13:38:53;;;;;;;;;;;8.50;99.90;;;;;;5086282;28;19924;-82
2024/01/23 13:41:19;;;;;;;;;;;8.40;99.90;;;;;;5068882;28;19974;-79
2024/01/23 13:43:45;;;;;;;;;;;8.30;99.90;;;;;;5075492;28;19932;-76
2024/01/23 13:46:11;;;;;;;;;;;8.40;99.90;;;;;;5077138;28;20024;-78
2024/01/23 13:48:37;;;;;;;;;;;8.20;99.90;;;;;;5107542;28;19924;-75
2024/01/23 13:51:03;;;;;;;;;;;8.30;99.90;;;;;;5071934;28;19935;-79
2024/01/23 13:53:29;;;;;;;;;;;8.30;99.90;;;;;;5074957;28;20018;-86
2024/01/23 13:55:55;;;;;;;;;;;8.30;99.90;;;;;;5074447;28;20015;-85
2024/01/23 13:58:20;;;;;;;;;;;8.10;99.90;;;;;;5074295;28;19924;-85
2024/01/23 14:00:46;;;;;;;;;;;8.30;99.90;;;;;;5070301;28;19942;-79
2024/01/23 14:03:12;;;;;;;;;;;7.90;99.90;;;;;;5073801;28;19924;-78
2024/01/23 14:05:37;;;;;;;;;;;7.90;99.90;;;;;;5100606;27;20244;-79
2024/01/23 14:08:03;;;;;;;;;;;7.90;99.90;;;;;;5069425;28;19940;-75
2024/01/23 14:10:28;;;;;;;;;;;7.90;99.90;;;;;;5069803;28;21108;-81
2024/01/23 14:12:54;;;;;;;;;;;7.80;99.90;;;;;;5071522;28;19932;-79
2024/01/23 14:15:20;;;;;;;;;;;7.60;99.90;;;;;;5074385;28;19926;-77
2024/01/23 14:17:49;;;;;;;;;;;7.90;99.90;;;;;;5110008;27;19924;-79
2024/01/23 14:20:15;;;;;;;;;;;7.60;99.90;;;;;;5084774;28;19923;-76